Latest Weather Observations for Ferny Creek

IDV60901

Issued at 5:55 pm EDT Saturday 25 October 2014 (issued every 10 minutes, with the page automatically refreshed every 10 minutes)

About weather observations | Map of Melbourne area stations | Latest observations for Melbourne area | Other Formats
Station Details ID: 086266 Name: FERNY CREEK Lat: -37.87 Lon: 145.35 Height: 512.9 m
Data from the previous 72 hours. | See also: Recent months at Ferny Creek
Date/Time
EDT
Tmp

°C
App
Tmp
°C
Dew
Point
°C
Rel
Hum
%
Delta-T

°C
Wind Press
QNH
hPa
Press
MSL
hPa
Rain
since
9 am
mm
Dir
 
Spd
km/h
Gust
km/h
Spd
kts
Gust
kts
25/05:30pm 14.6 13.8 11.0 79 2.0 SE 6 13 3 7 1015.1 1014.9 0.0
25/05:00pm 16.2 15.8 12.4 78 2.1 SE 6 9 3 5 1014.9 1014.7 0.0
25/04:30pm 15.8 15.2 11.8 77 2.2 SE 6 13 3 7 1015.0 1014.8 0.0
25/04:00pm 15.7 14.8 11.5 76 2.3 SE 7 15 4 8 1015.1 1014.9 0.0
25/03:30pm 16.6 16.7 12.8 78 2.2 SE 4 11 2 6 1015.2 1015.0 0.0
25/03:00pm 15.8 15.2 11.6 76 2.3 SW 6 13 3 7 1015.6 1015.4 0.0
25/02:30pm 15.6 14.9 11.4 76 2.3 S 6 13 3 7 1015.8 1015.6 0.0
25/02:00pm 14.7 14.3 11.1 79 2.0 SSE 4 9 2 5 1016.2 1016.1 0.0
25/01:30pm 14.5 13.8 11.3 81 1.8 S 6 7 3 4 1016.3 1016.2 0.0
25/01:00pm 15.2 15.5 12.2 82 1.7 ESE 2 6 1 3 1016.3 1016.2 0.0
25/12:30pm 13.6 13.1 10.8 83 1.5 SSE 4 7 2 4 1016.6 1016.5 0.0
25/12:00pm 12.8 12.8 11.0 89 1.0 S 2 6 1 3 1017.2 1017.0 0.0
25/11:30am 11.8 11.1 10.2 90 0.8 E 4 4 2 2 1017.5 1017.3 0.0
25/11:00am 11.2 10.5 10.1 93 0.6 SSE 4 7 2 4 1017.8 1017.7 0.0
25/10:30am 11.4 10.5 10.5 94 0.5 E 6 9 3 5 1017.6 1017.4 0.0
25/10:00am 11.1 10.1 10.2 94 0.5 E 6 9 3 5 1017.6 1017.4 0.0
25/09:30am 10.9 10.2 10.1 95 0.4 ESE 4 9 2 5 1017.6 1017.4 0.0
25/09:00am 10.5 10.1 9.7 95 0.4 SSE 2 6 1 3 1017.8 1017.7 1.0
25/08:30am 10.7 10.3 9.9 95 0.4 SSW 2 6 1 3 1017.7 1017.5 1.0
25/08:00am 10.7 10.8 10.1 96 0.3 CALM 0 0 0 0 1017.6 1017.4 1.0
25/07:30am 10.4 10.4 9.9 97 0.3 CALM 0 2 0 1 1017.4 1017.2 1.0
25/07:00am 10.5 10.6 10.0 97 0.3 CALM 0 0 0 0 1017.2 1017.0 1.0
25/06:30am 10.5 10.6 10.0 97 0.3 CALM 0 0 0 0 1017.1 1016.9 1.0
25/06:00am 10.6 10.7 10.1 97 0.3 WSW 0 0 0 0 1017.0 1016.8 0.8
25/05:30am 10.5 10.2 10.0 97 0.3 SW 2 6 1 3 1016.6 1016.5 0.8
25/05:00am 10.7 10.4 10.2 97 0.3 W 2 4 1 2 1016.5 1016.4 0.8
25/04:30am 10.9 11.1 10.4 97 0.3 CALM 0 2 0 1 1016.3 1016.2 0.6
25/04:00am 10.8 10.9 10.3 97 0.3 CALM 0 0 0 0 1016.3 1016.2 0.6
25/03:30am 10.9 10.7 10.4 97 0.3 SSE 2 6 1 3 1016.3 1016.2 0.4
25/03:00am 11.1 10.6 10.6 97 0.3 SW 4 9 2 5 1016.4 1016.3 0.2
25/02:30am 11.1 10.6 10.6 97 0.3 SW 4 9 2 5 1016.4 1016.3 0.0
25/02:00am 11.4 10.9 10.9 97 0.3 WSW 4 7 2 4 1016.5 1016.4 0.0
25/01:30am 12.0 11.7 11.5 97 0.3 WSW 4 7 2 4 1016.6 1016.5 0.0
25/01:00am 12.1 11.8 11.6 97 0.3 SW 4 9 2 5 1016.9 1016.7 0.0
25/12:30am 12.4 13.0 11.9 97 0.3 CALM 0 0 0 0 1016.7 1016.6 0.0
25/12:00am 12.6 12.5 12.1 97 0.3 W 4 6 2 3 1016.7 1016.6 0.0
 
Date/Time
EDT
Tmp

°C
App
Tmp
°C
Dew
Point
°C
Rel
Hum
%
Delta-T

°C
Wind Press
QNH
hPa
Press
MSL
hPa
Rain
since
9 am
mm
Dir
 
Spd
km/h
Gust
km/h
Spd
kts
Gust
kts
24/11:30pm 12.2 12.4 11.7 97 0.3 SE 2 4 1 2 1016.9 1016.7 0.0
24/11:00pm 12.2 12.4 11.7 97 0.3 ENE 2 4 1 2 1016.9 1016.7 0.0
24/10:30pm 12.1 11.8 11.6 97 0.3 SSE 4 7 2 4 1016.5 1016.4 0.0
24/10:00pm 12.7 12.2 12.1 96 0.3 ESE 6 11 3 6 1016.1 1016.0 0.0
24/09:30pm 13.5 13.2 12.7 95 0.4 SE 6 13 3 7 1015.4 1015.2 0.0
24/09:00pm 14.6 14.2 12.5 87 1.2 S 6 15 3 8 1015.1 1014.9 0.0
24/08:30pm 17.3 17.4 12.8 75 2.6 S 4 9 2 5 1014.3 1014.1 0.0
24/08:00pm 18.4 18.8 12.6 69 3.3 ESE 2 4 1 2 1014.1 1013.9 0.0
24/07:30pm 20.3 19.9 11.0 55 5.2 SSW 4 11 2 6 1013.7 1013.5 0.0
24/07:00pm 21.9 21.3 11.6 52 5.9 SW 6 13 3 7 1013.2 1013.0 0.0
24/06:30pm 23.3 22.6 8.6 39 8.0 SSW 2 7 1 4 1012.5 1012.3 0.0
24/06:00pm 24.2 22.7 6.9 33 9.2 ENE 4 9 2 5 1012.3 1012.1 0.0
24/05:30pm 24.8 24.2 10.3 40 8.2 WNW 4 6 2 3 1012.3 1012.1 0.0
24/05:00pm 25.6 25.9 12.1 43 7.9 WSW 2 6 1 3 1012.2 1012.0 0.0
24/04:30pm 25.4 25.4 13.6 48 7.1 SW 6 13 3 7 1012.3 1012.1 0.0
24/04:00pm 25.6 25.8 14.1 49 7.0 W 6 13 3 7 1012.3 1012.1 0.0
24/03:30pm 25.1 25.2 12.7 46 7.3 SSW 4 9 2 5 1012.3 1012.1 0.0
24/03:00pm 26.5 27.3 14.9 49 7.1 W 4 11 2 6 1012.4 1012.2 0.0
24/02:30pm 24.7 25.3 13.0 48 6.9 W 2 6 1 3 1012.9 1012.7 0.0
24/02:00pm 25.8 25.9 14.0 48 7.1 NW 6 7 3 4 1013.1 1012.9 0.0
24/01:30pm 25.0 25.1 13.9 50 6.7 W 6 13 3 7 1013.1 1012.9 0.0
24/01:00pm 24.4 25.0 14.2 53 6.2 NW 4 13 2 7 1013.2 1013.0 0.0
24/12:30pm 23.5 23.9 14.8 58 5.3 NW 6 17 3 9 1013.3 1013.1 0.0
24/12:00pm 23.1 22.4 13.3 54 5.8 NW 9 19 5 10 1013.4 1013.2 0.0
24/11:30am 22.5 22.6 13.8 58 5.2 NNW 6 13 3 7 1013.4 1013.2 0.0
24/11:00am 21.3 20.8 12.2 56 5.2 NNW 6 13 3 7 1013.5 1013.3 0.0
24/10:30am 21.3 21.1 13.0 59 4.8 NNW 6 15 3 8 1013.4 1013.2 0.0
24/10:00am 21.3 20.1 11.6 54 5.5 N 9 20 5 11 1013.1 1012.9 0.0
24/09:30am 20.6 20.0 12.3 59 4.8 N 7 17 4 9 1013.0 1012.8 0.0
24/09:00am 20.1 19.5 11.6 58 4.8 N 6 13 3 7 1013.2 1013.0 0.2
24/08:30am 19.5 19.2 11.3 59 4.6 N 4 7 2 4 1013.2 1013.0 0.2
24/08:00am 19.0 18.7 11.3 61 4.3 N 4 7 2 4 1013.3 1013.1 0.2
24/07:30am 18.1 17.5 11.7 66 3.6 N 6 9 3 5 1013.2 1013.0 0.2
24/07:00am 16.8 16.5 11.5 71 2.9 N 4 7 2 4 1013.2 1013.0 0.2
24/06:30am 17.0 17.5 11.7 71 3.0 CALM 0 4 0 2 1013.0 1012.8 0.2
24/06:00am 16.4 17.0 12.0 75 2.5 CALM 0 4 0 2 1013.1 1012.9 0.2
24/05:30am 15.5 16.2 12.3 81 1.8 CALM 0 4 0 2 1013.0 1012.8 0.2
24/05:00am 14.3 15.0 12.2 87 1.2 CALM 0 0 0 0 1013.1 1012.9 0.2
24/04:30am 12.8 13.3 11.5 92 0.7 CALM 0 4 0 2 1013.0 1012.8 0.2
24/04:00am 13.3 13.8 11.7 90 0.9 CALM 0 0 0 0 1013.1 1012.9 0.2
24/03:30am 13.4 13.3 12.0 91 0.8 NE 4 6 2 3 1013.1 1012.9 0.2
24/03:00am 12.9 12.6 11.6 92 0.7 E 4 7 2 4 1013.6 1013.4 0.2
24/02:30am 12.6 13.0 11.2 91 0.8 CALM 0 6 0 3 1014.0 1013.8 0.2
24/02:00am 14.3 14.2 12.0 86 1.3 E 4 6 2 3 1014.4 1014.3 0.2
24/01:30am 14.4 14.3 12.1 86 1.3 ENE 4 7 2 4 1014.8 1014.6 0.2
24/01:00am 14.2 14.1 12.2 88 1.1 NE 4 9 2 5 1015.2 1015.0 0.2
24/12:30am 13.4 13.7 12.1 92 0.7 NNW 2 7 1 4 1015.5 1015.3 0.2
24/12:00am 14.4 14.2 11.7 84 1.5 ENE 4 7 2 4 1015.8 1015.6 0.2
 
Date/Time
EDT
Tmp

°C
App
Tmp
°C
Dew
Point
°C
Rel
Hum
%
Delta-T

°C
Wind Press
QNH
hPa
Press
MSL
hPa
Rain
since
9 am
mm
Dir
 
Spd
km/h
Gust
km/h
Spd
kts
Gust
kts
23/11:30pm 14.7 15.1 12.4 86 1.3 NW 2 7 1 4 1015.9 1015.7 0.2
23/11:00pm 14.2 14.6 12.6 90 0.9 NNE 2 9 1 5 1016.0 1015.8 0.2
23/10:30pm 13.3 13.5 12.0 92 0.7 E 2 4 1 2 1016.2 1016.1 0.0
23/10:00pm 13.4 13.7 12.1 92 0.7 ENE 2 4 1 2 1016.1 1016.0 0.0
23/09:30pm 13.2 12.5 12.1 93 0.6 E 7 11 4 6 1016.0 1015.8 0.0
23/09:00pm 13.5 12.9 12.4 93 0.6 E 7 13 4 7 1015.9 1015.7 0.0
23/08:30pm 13.6 13.1 12.5 93 0.6 E 7 13 4 7 1015.9 1015.7 0.0
23/08:00pm 13.9 13.0 12.6 92 0.7 ENE 9 15 5 8 1015.9 1015.7 0.0
23/07:30pm 14.5 14.0 12.7 89 1.0 ENE 7 11 4 6 1016.1 1016.0 0.0
23/07:00pm 15.8 15.6 13.5 86 1.3 E 7 11 4 6 1016.0 1015.8 0.0
23/06:30pm 16.4 16.2 13.7 84 1.6 E 7 11 4 6 1016.1 1016.0 0.0
23/06:00pm 17.0 16.9 13.9 82 1.8 E 7 13 4 7 1016.2 1016.1 0.0
23/05:30pm 18.0 18.1 14.5 80 2.1 E 7 15 4 8 1016.4 1016.3 0.0
23/05:00pm 18.7 19.0 14.6 77 2.4 E 6 11 3 6 1016.5 1016.4 0.0
23/04:30pm 18.7 18.8 14.4 76 2.5 E 7 13 4 7 1016.7 1016.6 0.0
23/04:00pm 18.6 18.1 13.9 74 2.8 ENE 9 13 5 7 1017.0 1016.8 0.0
23/03:30pm 18.4 17.9 13.9 75 2.6 ENE 9 17 5 9 1017.3 1017.1 0.0
23/03:00pm 18.1 17.7 14.2 78 2.3 E 9 19 5 10 1017.5 1017.3 0.0
23/02:30pm 17.8 17.0 14.1 79 2.2 ENE 11 17 6 9 1018.0 1017.9 0.0
23/02:00pm 16.1 15.6 13.8 86 1.3 E 9 17 5 9 1018.1 1018.0 0.0
23/01:30pm 14.5 13.7 13.0 91 0.8 ESE 9 15 5 8 1018.9 1018.7 0.0
23/01:00pm 13.7 13.3 12.9 95 0.4 ESE 7 17 4 9 1019.1 1018.9 0.0
23/12:30pm 12.9 11.8 12.1 95 0.4 ESE 9 19 5 10 1019.3 1019.1 0.0
23/12:00pm 12.9 12.5 12.4 97 0.3 ESE 6 13 3 7 1019.6 1019.5 0.0
23/11:30am 12.4 11.9 11.9 97 0.3 ESE 6 11 3 6 1020.0 1019.9 0.0
23/11:00am 12.4 11.9 12.1 98 0.2 E 6 9 3 5 1020.2 1020.1 0.0
23/10:30am 12.2 11.7 11.9 98 0.2 ESE 6 13 3 7 1020.3 1020.2 0.0
23/10:00am 11.7 11.3 11.2 97 0.3 SSE 4 7 2 4 1020.6 1020.5 0.0
23/09:30am 11.7 11.4 11.4 98 0.2 SE 4 6 2 3 1020.6 1020.5 0.0
23/09:00am 11.7 11.4 11.4 98 0.2 E 4 7 2 4 1020.5 1020.4 0.0
23/08:30am 11.5 10.7 11.0 97 0.3 E 6 9 3 5 1020.4 1020.3 0.0
23/08:00am 11.7 11.3 11.2 97 0.3 ESE 4 6 2 3 1020.3 1020.2 0.0
23/07:30am 11.7 11.3 11.2 97 0.3 SE 4 7 2 4 1020.3 1020.2 0.0
23/07:00am 11.8 12.2 11.3 97 0.3 CALM 0 0 0 0 1019.9 1019.8 0.0
23/06:30am 11.6 11.6 11.1 97 0.3 SSW 2 4 1 2 1019.6 1019.5 0.0
23/06:00am 11.7 11.7 11.2 97 0.3 SW 2 7 1 4 1019.4 1019.2 0.0
23/05:30am 11.7 11.7 11.2 97 0.3 SW 2 7 1 4 1019.1 1018.9 0.0
23/05:00am 11.8 11.8 11.3 97 0.3 WSW 2 4 1 2 1018.6 1018.5 0.0
23/04:30am 11.9 11.6 11.4 97 0.3 W 4 7 2 4 1018.5 1018.4 0.0
23/04:00am 12.1 11.8 11.5 96 0.3 SW 4 7 2 4 1018.3 1018.2 0.0
23/03:30am 12.2 12.7 11.6 96 0.3 CALM 0 2 0 1 1018.6 1018.5 0.0
23/03:00am 12.1 11.4 11.5 96 0.3 W 6 7 3 4 1018.9 1018.7 0.0
23/02:30am 12.2 11.4 11.6 96 0.3 WNW 7 13 4 7 1019.3 1019.1 0.0
23/02:00am 12.4 11.5 11.5 94 0.5 WNW 7 15 4 8 1019.3 1019.1 0.0
23/01:30am 13.4 12.6 11.1 86 1.2 SW 6 20 3 11 1019.6 1019.5 0.0
23/01:00am 13.3 12.9 11.2 87 1.1 ENE 4 6 2 3 1019.1 1018.9 0.0
23/12:30am 12.7 12.3 11.1 90 0.9 SE 4 9 2 5 1019.6 1019.5 0.0
23/12:00am 12.8 11.5 11.2 90 0.9 SW 9 19 5 10 1019.6 1019.5 0.0
 
Date/Time
EDT
Tmp

°C
App
Tmp
°C
Dew
Point
°C
Rel
Hum
%
Delta-T

°C
Wind Press
QNH
hPa
Press
MSL
hPa
Rain
since
9 am
mm
Dir
 
Spd
km/h
Gust
km/h
Spd
kts
Gust
kts
22/11:30pm 14.0 13.0 11.0 82 1.6 SW 7 13 4 7 1019.3 1019.1 0.0
22/11:00pm 15.4 15.0 11.0 75 2.4 SW 4 9 2 5 1019.1 1018.9 0.0
22/10:30pm 18.8 18.2 11.6 63 4.1 SW 6 9 3 5 1019.3 1019.1 0.0
22/10:00pm 21.2 21.5 12.1 56 5.2 WNW 2 11 1 6 1019.5 1019.4 0.0
22/09:30pm 20.9 20.6 12.8 60 4.7 SW 6 13 3 7 1019.8 1019.7 0.0
22/09:00pm 22.7 22.2 12.0 50 6.2 NNW 6 13 3 7 1018.6 1018.5 0.0
22/08:30pm 22.6 22.4 11.7 50 6.3 N 4 7 2 4 1018.0 1017.9 0.0
22/08:00pm 22.9 22.3 11.6 49 6.5 NNW 6 11 3 6 1017.6 1017.4 0.0
22/07:30pm 23.4 22.4 11.1 46 7.0 N 7 17 4 9 1017.3 1017.1 0.0
22/07:00pm 23.6 22.9 12.0 48 6.7 N 7 17 4 9 1017.1 1016.9 0.0
22/06:30pm 24.1 23.5 11.8 46 7.1 N 6 11 3 6 1017.3 1017.1 0.0
22/06:00pm 24.1 23.6 10.7 43 7.6 N 4 7 2 4 1017.6 1017.4 0.0

Latest Capital City Observations: Canberra | Sydney | Melbourne | Brisbane | Adelaide | Perth | Hobart | Darwin

Other Formats:

Comma delimited format used in spreadsheet applications
http://www.bom.gov.au/fwo/IDV60901/IDV60901.94872.axf

JavaScript Object Notation format (JSON) in row-major order
http://www.bom.gov.au/fwo/IDV60901/IDV60901.94872.json